sensor_id;sensor_type;location;lat;lon;timestamp;pressure;altitude;pressure_sealevel;temperature;humidity
55347;BME280;41218;55.700;38.270;2023-02-17T00:02:47;100653.22;;;-6.73;66.88
55347;BME280;41218;55.700;38.270;2023-02-17T00:07:48;100653.09;;;-6.66;67.05
55347;BME280;41218;55.700;38.270;2023-02-17T00:12:49;100655.44;;;-6.58;66.98
55347;BME280;41218;55.700;38.270;2023-02-17T00:17:50;100651.34;;;-6.60;66.67
55347;BME280;41218;55.700;38.270;2023-02-17T00:22:50;100655.44;;;-6.58;66.98
55347;BME280;41218;55.700;38.270;2023-02-17T00:27:51;100647.50;;;-6.53;67.26
55347;BME280;41218;55.700;38.270;2023-02-17T00:32:51;100646.22;;;-6.50;67.07
55347;BME280;41218;55.700;38.270;2023-02-17T00:37:51;100638.38;;;-6.52;66.51
55347;BME280;41218;55.700;38.270;2023-02-17T00:42:52;100643.28;;;-6.49;67.02
55347;BME280;41218;55.700;38.270;2023-02-17T00:47:54;100641.41;;;-6.48;67.00
55347;BME280;41218;55.700;38.270;2023-02-17T00:52:54;100626.31;;;-6.49;66.83
55347;BME280;41218;55.700;38.270;2023-02-17T00:57:55;100636.03;;;-6.48;66.44
55347;BME280;41218;55.700;38.270;2023-02-17T01:02:55;100640.13;;;-6.46;66.86
55347;BME280;41218;55.700;38.270;2023-02-17T01:07:56;100635.22;;;-6.49;66.88
55347;BME280;41218;55.700;38.270;2023-02-17T01:12:56;100640.13;;;-6.46;67.00
55347;BME280;41218;55.700;38.270;2023-02-17T01:17:57;100642.34;;;-6.42;67.04
55347;BME280;41218;55.700;38.270;2023-02-17T01:22:57;100633.78;;;-6.39;67.03
55347;BME280;41218;55.700;38.270;2023-02-17T01:27:58;100637.06;;;-6.37;66.92
55347;BME280;41218;55.700;38.270;2023-02-17T01:32:58;100629.22;;;-6.39;66.68
55347;BME280;41218;55.700;38.270;2023-02-17T01:37:59;100633.78;;;-6.39;67.10
55347;BME280;41218;55.700;38.270;2023-02-17T01:43:00;100626.53;;;-6.39;66.96
55347;BME280;41218;55.700;38.270;2023-02-17T01:53:05;100620.69;;;-6.36;66.95
55347;BME280;41218;55.700;38.270;2023-02-17T01:58:08;100619.41;;;-6.33;67.01
55347;BME280;41218;55.700;38.270;2023-02-17T02:03:12;100627.38;;;-6.38;67.02
55347;BME280;41218;55.700;38.270;2023-02-17T02:08:13;100618.59;;;-6.34;67.21
55347;BME280;41218;55.700;38.270;2023-02-17T02:13:14;100621.84;;;-6.32;67.15
55347;BME280;41218;55.700;38.270;2023-02-17T02:18:32;100627.69;;;-6.35;66.83
55347;BME280;41218;55.700;38.270;2023-02-17T02:34:21;100646.66;;;-6.30;66.44
55347;BME280;41218;55.700;38.270;2023-02-17T02:39:25;100641.50;;;-6.31;67.57
55347;BME280;41218;55.700;38.270;2023-02-17T02:44:29;100635.91;;;-6.30;67.43
55347;BME280;41218;55.700;38.270;2023-02-17T02:49:30;100632.97;;;-6.28;67.43
55347;BME280;41218;55.700;38.270;2023-02-17T03:00:02;100646.28;;;-6.21;66.96
55347;BME280;41218;55.700;38.270;2023-02-17T03:05:31;100640.69;;;-6.20;66.43
55347;BME280;41218;55.700;38.270;2023-02-17T03:10:47;100644.41;;;-6.21;67.15
55347;BME280;41218;55.700;38.270;2023-02-17T03:15:48;100642.53;;;-6.20;67.11
55347;BME280;41218;55.700;38.270;2023-02-17T03:20:56;100639.53;;;-6.24;67.34
55347;BME280;41218;55.700;38.270;2023-02-17T03:25:58;100636.34;;;-6.21;66.91
55347;BME280;41218;55.700;38.270;2023-02-17T03:30:59;100643.09;;;-6.18;66.96
55347;BME280;41218;55.700;38.270;2023-02-17T03:35:59;100642.31;;;-6.19;67.11
55347;BME280;41218;55.700;38.270;2023-02-17T03:41:00;100638.00;;;-6.20;67.14
55347;BME280;41218;55.700;38.270;2023-02-17T03:46:01;100651.31;;;-6.13;66.82
55347;BME280;41218;55.700;38.270;2023-02-17T03:51:18;100643.22;;;-6.13;66.62
55347;BME280;41218;55.700;38.270;2023-02-17T03:56:19;100636.91;;;-6.19;66.76
55347;BME280;41218;55.700;38.270;2023-02-17T04:01:20;100635.28;;;-6.20;66.51
55347;BME280;41218;55.700;38.270;2023-02-17T04:06:21;100645.69;;;-6.12;67.05
55347;BME280;41218;55.700;38.270;2023-02-17T04:11:21;100646.97;;;-6.14;66.70
55347;BME280;41218;55.700;38.270;2023-02-17T04:16:22;100645.34;;;-6.15;66.65
55347;BME280;41218;55.700;38.270;2023-02-17T04:21:22;100655.16;;;-6.09;66.71
55347;BME280;41218;55.700;38.270;2023-02-17T04:26:23;100656.81;;;-6.08;67.19
55347;BME280;41218;55.700;38.270;2023-02-17T04:31:23;100641.94;;;-6.11;66.86
55347;BME280;41218;55.700;38.270;2023-02-17T04:36:25;100659.25;;;-6.07;66.41
55347;BME280;41218;55.700;38.270;2023-02-17T04:41:25;100640.78;;;-6.15;66.74
55347;BME280;41218;55.700;38.270;2023-02-17T04:46:26;100646.84;;;-6.08;66.52
55347;BME280;41218;55.700;38.270;2023-02-17T04:51:26;100646.28;;;-6.10;66.95
55347;BME280;41218;55.700;38.270;2023-02-17T04:56:27;100659.38;;;-6.01;66.85
55347;BME280;41218;55.700;38.270;2023-02-17T05:01:27;100637.03;;;-6.14;67.04
55347;BME280;41218;55.700;38.270;2023-02-17T05:06:28;100655.59;;;-6.00;67.03
55347;BME280;41218;55.700;38.270;2023-02-17T05:11:28;100652.31;;;-6.02;66.97
55347;BME280;41218;55.700;38.270;2023-02-17T05:16:30;100649.19;;;-5.99;67.27
55347;BME280;41218;55.700;38.270;2023-02-17T05:21:31;100648.38;;;-6.00;66.93
55347;BME280;41218;55.700;38.270;2023-02-17T05:26:32;100657.06;;;-5.93;66.55
55347;BME280;41218;55.700;38.270;2023-02-17T05:31:32;100657.44;;;-5.89;67.27
55347;BME280;41218;55.700;38.270;2023-02-17T05:36:32;100651.22;;;-5.90;66.85
55347;BME280;41218;55.700;38.270;2023-02-17T05:41:33;100655.66;;;-5.84;67.10
55347;BME280;41218;55.700;38.270;2023-02-17T05:46:34;100656.47;;;-5.83;66.87
55347;BME280;41218;55.700;38.270;2023-02-17T05:51:34;100646.50;;;-5.82;66.88
55347;BME280;41218;55.700;38.270;2023-02-17T05:56:35;100660.16;;;-5.72;67.03
55347;BME280;41218;55.700;38.270;2023-02-17T06:01:36;100671.28;;;-5.69;66.90
55347;BME280;41218;55.700;38.270;2023-02-17T06:06:37;100673.84;;;-5.62;67.61
55347;BME280;41218;55.700;38.270;2023-02-17T06:11:37;100666.91;;;-5.58;67.12
55347;BME280;41218;55.700;38.270;2023-02-17T06:16:38;100668.41;;;-5.50;67.08
55347;BME280;41218;55.700;38.270;2023-02-17T06:21:39;100656.31;;;-5.48;67.38
55347;BME280;41218;55.700;38.270;2023-02-17T06:26:39;100671.28;;;-5.40;67.37
55347;BME280;41218;55.700;38.270;2023-02-17T06:31:40;100663.91;;;-5.33;67.80
55347;BME280;41218;55.700;38.270;2023-02-17T06:36:40;100648.38;;;-5.26;67.17
55347;BME280;41218;55.700;38.270;2023-02-17T06:41:41;100654.78;;;-5.15;67.44
55347;BME280;41218;55.700;38.270;2023-02-17T06:46:42;100657.38;;;-5.03;67.64
55347;BME280;41218;55.700;38.270;2023-02-17T06:51:45;100661.78;;;-4.97;67.31
55347;BME280;41218;55.700;38.270;2023-02-17T06:56:45;100655.53;;;-4.86;67.41
55347;BME280;41218;55.700;38.270;2023-02-17T07:01:46;100670.63;;;-4.68;67.58
55347;BME280;41218;55.700;38.270;2023-02-17T07:06:48;100672.94;;;-4.59;67.46
55347;BME280;41218;55.700;38.270;2023-02-17T07:11:49;100666.53;;;-4.53;67.30
55347;BME280;41218;55.700;38.270;2023-02-17T07:16:50;100657.88;;;-4.55;67.01
55347;BME280;41218;55.700;38.270;2023-02-17T07:21:51;100670.72;;;-4.46;67.16
55347;BME280;41218;55.700;38.270;2023-02-17T07:26:51;100666.75;;;-4.38;66.65
55347;BME280;41218;55.700;38.270;2023-02-17T07:31:54;100654.56;;;-4.40;67.48
55347;BME280;41218;55.700;38.270;2023-02-17T07:36:55;100651.16;;;-4.36;67.51
55347;BME280;41218;55.700;38.270;2023-02-17T07:41:55;100646.81;;;-4.37;67.11
55347;BME280;41218;55.700;38.270;2023-02-17T07:47:00;100644.91;;;-4.36;66.99
55347;BME280;41218;55.700;38.270;2023-02-17T07:52:00;100631.50;;;-4.31;66.82
55347;BME280;41218;55.700;38.270;2023-02-17T07:57:01;100632.69;;;-4.22;66.75
55347;BME280;41218;55.700;38.270;2023-02-17T08:02:02;100637.84;;;-4.20;66.39
55347;BME280;41218;55.700;38.270;2023-02-17T08:07:02;100631.69;;;-4.16;66.56
55347;BME280;41218;55.700;38.270;2023-02-17T08:12:03;100635.22;;;-4.15;66.25
55347;BME280;41218;55.700;38.270;2023-02-17T08:17:22;100628.38;;;-4.23;66.36
55347;BME280;41218;55.700;38.270;2023-02-17T08:22:22;100633.81;;;-4.18;66.75
55347;BME280;41218;55.700;38.270;2023-02-17T08:27:23;100625.47;;;-4.16;66.28
55347;BME280;41218;55.700;38.270;2023-02-17T08:32:24;100622.84;;;-4.11;66.30
55347;BME280;41218;55.700;38.270;2023-02-17T08:37:24;100628.69;;;-3.97;66.31
55347;BME280;41218;55.700;38.270;2023-02-17T08:42:26;100626.69;;;-3.85;66.16
55347;BME280;41218;55.700;38.270;2023-02-17T08:47:27;100612.97;;;-3.78;66.45
55347;BME280;41218;55.700;38.270;2023-02-17T08:52:27;100605.75;;;-3.73;65.85
55347;BME280;41218;55.700;38.270;2023-02-17T08:57:28;100617.78;;;-3.58;65.70
55347;BME280;41218;55.700;38.270;2023-02-17T09:02:28;100620.84;;;-3.50;66.08
55347;BME280;41218;55.700;38.270;2023-02-17T09:07:29;100619.03;;;-3.39;65.85
55347;BME280;41218;55.700;38.270;2023-02-17T09:12:29;100599.47;;;-3.24;65.65
55347;BME280;41218;55.700;38.270;2023-02-17T09:17:30;100606.31;;;-3.11;65.17
55347;BME280;41218;55.700;38.270;2023-02-17T09:22:30;100603.41;;;-3.05;64.60
55347;BME280;41218;55.700;38.270;2023-02-17T09:27:31;100602.91;;;-2.96;64.89
55347;BME280;41218;55.700;38.270;2023-02-17T09:32:31;100598.38;;;-2.91;64.52
55347;BME280;41218;55.700;38.270;2023-02-17T09:37:32;100589.78;;;-2.83;64.73
55347;BME280;41218;55.700;38.270;2023-02-17T09:42:35;100593.91;;;-2.70;64.42
55347;BME280;41218;55.700;38.270;2023-02-17T09:47:50;100586.44;;;-2.57;64.18
55347;BME280;41218;55.700;38.270;2023-02-17T10:03:19;100568.63;;;-2.43;63.25
55347;BME280;41218;55.700;38.270;2023-02-17T10:08:32;100560.81;;;-2.34;63.88
55347;BME280;41218;55.700;38.270;2023-02-17T10:13:35;100561.66;;;-2.29;63.87
55347;BME280;41218;55.700;38.270;2023-02-17T10:18:48;100559.25;;;-2.20;63.48
55347;BME280;41218;55.700;38.270;2023-02-17T10:23:51;100546.53;;;-2.14;63.48
55347;BME280;41218;55.700;38.270;2023-02-17T10:28:55;100560.13;;;-1.99;63.48
55347;BME280;41218;55.700;38.270;2023-02-17T10:34:04;100553.38;;;-1.96;63.42
55347;BME280;41218;55.700;38.270;2023-02-17T10:39:15;100550.16;;;-1.88;63.20
55347;BME280;41218;55.700;38.270;2023-02-17T10:44:24;100546.59;;;-1.89;63.29
55347;BME280;41218;55.700;38.270;2023-02-17T10:49:28;100550.16;;;-1.88;63.29
55347;BME280;41218;55.700;38.270;2023-02-17T10:54:38;100546.88;;;-1.85;63.15
55347;BME280;41218;55.700;38.270;2023-02-17T10:59:45;100540.13;;;-1.83;62.76
55347;BME280;41218;55.700;38.270;2023-02-17T11:04:48;100537.69;;;-1.79;63.06
55347;BME280;41218;55.700;38.270;2023-02-17T11:09:51;100531.47;;;-1.79;63.25
55347;BME280;41218;55.700;38.270;2023-02-17T11:14:55;100535.81;;;-1.73;62.80
55347;BME280;41218;55.700;38.270;2023-02-17T11:19:56;100535.28;;;-1.70;62.35
55347;BME280;41218;55.700;38.270;2023-02-17T11:25:00;100532.03;;;-1.67;63.04
55347;BME280;41218;55.700;38.270;2023-02-17T11:30:08;100525.00;;;-1.68;61.78
55347;BME280;41218;55.700;38.270;2023-02-17T11:35:41;100520.34;;;-1.73;61.87
55347;BME280;41218;55.700;38.270;2023-02-17T11:40:54;100510.91;;;-1.70;62.23
55347;BME280;41218;55.700;38.270;2023-02-17T11:46:20;100505.19;;;-1.69;62.07
55347;BME280;41218;55.700;38.270;2023-02-17T11:51:45;100499.78;;;-1.64;62.04
55347;BME280;41218;55.700;38.270;2023-02-17T12:02:17;100494.88;;;-1.67;62.36
55347;BME280;41218;55.700;38.270;2023-02-17T12:12:59;100487.03;;;-1.63;61.93
55347;BME280;41218;55.700;38.270;2023-02-17T12:18:07;100481.88;;;-1.65;61.88
55347;BME280;41218;55.700;38.270;2023-02-17T12:23:24;100475.66;;;-1.65;62.31
55347;BME280;41218;55.700;38.270;2023-02-17T12:34:20;100470.47;;;-1.56;61.85
55347;BME280;41218;55.700;38.270;2023-02-17T12:45:03;100478.09;;;-1.64;61.81
55347;BME280;41218;55.700;38.270;2023-02-17T12:50:30;100479.72;;;-1.68;62.09
55347;BME280;41218;55.700;38.270;2023-02-17T12:55:42;100479.69;;;-1.73;61.79
55347;BME280;41218;55.700;38.270;2023-02-17T13:00:51;100474.28;;;-1.78;61.69
55347;BME280;41218;55.700;38.270;2023-02-17T13:05:59;100479.97;;;-1.79;61.73
55347;BME280;41218;55.700;38.270;2023-02-17T13:11:04;100466.69;;;-1.86;62.16
55347;BME280;41218;55.700;38.270;2023-02-17T13:16:08;100474.28;;;-1.88;61.92
55347;BME280;41218;55.700;38.270;2023-02-17T13:31:24;100472.09;;;-2.07;61.63
55347;BME280;41218;55.700;38.270;2023-02-17T13:41:32;100470.41;;;-2.28;61.69
55347;BME280;41218;55.700;38.270;2023-02-17T13:46:35;100466.84;;;-2.34;62.21
55347;BME280;41218;55.700;38.270;2023-02-17T13:51:36;100473.03;;;-2.44;61.99
55347;BME280;41218;55.700;38.270;2023-02-17T13:56:38;100467.88;;;-2.50;62.13
55347;BME280;41218;55.700;38.270;2023-02-17T14:01:40;100474.34;;;-2.56;62.35
55347;BME280;41218;55.700;38.270;2023-02-17T14:06:42;100468.66;;;-2.60;62.44
55347;BME280;41218;55.700;38.270;2023-02-17T14:11:42;100466.22;;;-2.62;62.46
55347;BME280;41218;55.700;38.270;2023-02-17T14:16:43;100460.25;;;-2.69;62.48
55347;BME280;41218;55.700;38.270;2023-02-17T14:21:55;100455.34;;;-2.72;62.53
55347;BME280;41218;55.700;38.270;2023-02-17T14:27:03;100468.06;;;-2.77;62.19
55347;BME280;41218;55.700;38.270;2023-02-17T14:32:06;100462.59;;;-2.88;62.21
55347;BME280;41218;55.700;38.270;2023-02-17T14:37:24;100454.94;;;-3.01;62.23
55347;BME280;41218;55.700;38.270;2023-02-17T14:42:25;100465.19;;;-3.03;62.43
55347;BME280;41218;55.700;38.270;2023-02-17T14:47:26;100465.69;;;-3.11;62.42
55347;BME280;41218;55.700;38.270;2023-02-17T14:52:26;100462.94;;;-3.22;62.53
55347;BME280;41218;55.700;38.270;2023-02-17T14:57:27;100463.69;;;-3.31;62.97
55347;BME280;41218;55.700;38.270;2023-02-17T15:02:29;100450.88;;;-3.46;62.71
55347;BME280;41218;55.700;38.270;2023-02-17T15:07:30;100457.25;;;-3.57;62.88
55347;BME280;41218;55.700;38.270;2023-02-17T15:12:30;100441.19;;;-3.74;63.38
55347;BME280;41218;55.700;38.270;2023-02-17T15:17:31;100447.28;;;-3.89;63.56
55347;BME280;41218;55.700;38.270;2023-02-17T15:22:31;100458.28;;;-3.96;63.21
55347;BME280;41218;55.700;38.270;2023-02-17T15:27:32;100458.72;;;-4.09;63.84
55347;BME280;41218;55.700;38.270;2023-02-17T15:32:32;100458.88;;;-4.21;64.01
55347;BME280;41218;55.700;38.270;2023-02-17T15:37:33;100453.84;;;-4.34;64.28
55347;BME280;41218;55.700;38.270;2023-02-17T15:42:34;100448.59;;;-4.46;63.93
55347;BME280;41218;55.700;38.270;2023-02-17T15:47:34;100453.31;;;-4.58;64.10
55347;BME280;41218;55.700;38.270;2023-02-17T15:52:35;100446.66;;;-4.73;64.37
55347;BME280;41218;55.700;38.270;2023-02-17T15:57:36;100449.47;;;-4.85;64.67
55347;BME280;41218;55.700;38.270;2023-02-17T16:02:39;100448.88;;;-4.92;64.83
55347;BME280;41218;55.700;38.270;2023-02-17T16:07:39;100447.09;;;-5.03;64.48
55347;BME280;41218;55.700;38.270;2023-02-17T16:12:40;100449.09;;;-5.15;65.40
55347;BME280;41218;55.700;38.270;2023-02-17T16:17:41;100434.91;;;-5.28;64.74
55347;BME280;41218;55.700;38.270;2023-02-17T16:22:43;100439.41;;;-5.33;65.27
55347;BME280;41218;55.700;38.270;2023-02-17T16:27:45;100439.00;;;-5.42;65.23
55347;BME280;41218;55.700;38.270;2023-02-17T16:32:46;100427.28;;;-5.53;65.71
55347;BME280;41218;55.700;38.270;2023-02-17T16:38:01;100428.16;;;-5.64;65.72
55347;BME280;41218;55.700;38.270;2023-02-17T16:43:04;100418.56;;;-5.77;65.90
55347;BME280;41218;55.700;38.270;2023-02-17T16:48:06;100417.88;;;-5.84;65.62
55347;BME280;41218;55.700;38.270;2023-02-17T16:53:11;100414.56;;;-5.91;66.27
55347;BME280;41218;55.700;38.270;2023-02-17T16:58:20;100411.50;;;-6.00;66.38
55347;BME280;41218;55.700;38.270;2023-02-17T17:03:21;100411.31;;;-6.10;66.42
55347;BME280;41218;55.700;38.270;2023-02-17T17:08:22;100404.94;;;-6.21;66.27
55347;BME280;41218;55.700;38.270;2023-02-17T17:13:22;100406.41;;;-6.30;66.63
55347;BME280;41218;55.700;38.270;2023-02-17T17:18:23;100395.19;;;-6.39;66.46
55347;BME280;41218;55.700;38.270;2023-02-17T17:23:23;100392.91;;;-6.47;67.16
55347;BME280;41218;55.700;38.270;2023-02-17T17:28:24;100390.47;;;-6.49;66.88
55347;BME280;41218;55.700;38.270;2023-02-17T17:33:24;100381.94;;;-6.57;66.54
55347;BME280;41218;55.700;38.270;2023-02-17T17:38:25;100366.38;;;-6.72;66.85
55347;BME280;41218;55.700;38.270;2023-02-17T17:43:26;100359.25;;;-6.78;66.65
55347;BME280;41218;55.700;38.270;2023-02-17T17:48:26;100360.44;;;-6.86;66.80
55347;BME280;41218;55.700;38.270;2023-02-17T17:53:27;100363.28;;;-6.93;67.08
55347;BME280;41218;55.700;38.270;2023-02-17T17:58:27;100350.47;;;-7.02;67.27
55347;BME280;41218;55.700;38.270;2023-02-17T18:03:29;100348.72;;;-7.09;66.98
55347;BME280;41218;55.700;38.270;2023-02-17T18:08:30;100344.31;;;-7.15;67.09
55347;BME280;41218;55.700;38.270;2023-02-17T18:13:31;100337.66;;;-7.24;67.20
55347;BME280;41218;55.700;38.270;2023-02-17T18:18:32;100323.78;;;-7.33;67.30
55347;BME280;41218;55.700;38.270;2023-02-17T18:23:32;100324.16;;;-7.41;67.23
55347;BME280;41218;55.700;38.270;2023-02-17T18:28:33;100322.78;;;-7.43;67.56
55347;BME280;41218;55.700;38.270;2023-02-17T18:33:33;100330.00;;;-7.44;66.95
55347;BME280;41218;55.700;38.270;2023-02-17T18:38:34;100321.28;;;-7.51;67.19
55347;BME280;41218;55.700;38.270;2023-02-17T18:43:35;100315.56;;;-7.55;67.20
55347;BME280;41218;55.700;38.270;2023-02-17T18:48:35;100309.25;;;-7.60;66.93
55347;BME280;41218;55.700;38.270;2023-02-17T18:53:36;100300.75;;;-7.69;67.65
55347;BME280;41218;55.700;38.270;2023-02-17T18:58:37;100292.72;;;-7.81;67.02
55347;BME280;41218;55.700;38.270;2023-02-17T19:03:37;100296.47;;;-7.82;67.82
55347;BME280;41218;55.700;38.270;2023-02-17T19:08:38;100286.31;;;-7.92;67.65
55347;BME280;41218;55.700;38.270;2023-02-17T19:13:40;100293.44;;;-7.97;67.56
55347;BME280;41218;55.700;38.270;2023-02-17T19:18:42;100291.44;;;-8.02;67.58
55347;BME280;41218;55.700;38.270;2023-02-17T19:23:43;100280.13;;;-8.04;67.55
55347;BME280;41218;55.700;38.270;2023-02-17T19:28:44;100273.13;;;-8.05;67.68
55347;BME280;41218;55.700;38.270;2023-02-17T19:33:46;100262.53;;;-8.12;67.81
55347;BME280;41218;55.700;38.270;2023-02-17T19:38:47;100263.47;;;-8.18;67.38
55347;BME280;41218;55.700;38.270;2023-02-17T19:43:48;100256.00;;;-8.28;67.40
55347;BME280;41218;55.700;38.270;2023-02-17T19:48:49;100246.19;;;-8.34;67.75
55347;BME280;41218;55.700;38.270;2023-02-17T19:53:49;100232.22;;;-8.48;67.90
55347;BME280;41218;55.700;38.270;2023-02-17T19:58:50;100248.09;;;-8.46;67.48
55347;BME280;41218;55.700;38.270;2023-02-17T20:03:52;100251.69;;;-8.52;68.11
55347;BME280;41218;55.700;38.270;2023-02-17T20:08:56;100251.81;;;-8.59;67.54
55347;BME280;41218;55.700;38.270;2023-02-17T20:13:58;100243.41;;;-8.62;67.76
55347;BME280;41218;55.700;38.270;2023-02-17T20:19:00;100255.19;;;-8.63;67.66
55347;BME280;41218;55.700;38.270;2023-02-17T20:24:01;100258.81;;;-8.70;67.75
55347;BME280;41218;55.700;38.270;2023-02-17T20:29:02;100245.25;;;-8.75;67.76
55347;BME280;41218;55.700;38.270;2023-02-17T20:34:04;100245.97;;;-8.79;67.89
55347;BME280;41218;55.700;38.270;2023-02-17T20:39:04;100244.53;;;-8.82;68.20
55347;BME280;41218;55.700;38.270;2023-02-17T20:44:05;100225.44;;;-8.85;67.92
55347;BME280;41218;55.700;38.270;2023-02-17T20:49:05;100230.66;;;-8.91;68.16
55347;BME280;41218;55.700;38.270;2023-02-17T20:54:06;100230.06;;;-8.93;68.00
55347;BME280;41218;55.700;38.270;2023-02-17T20:59:08;100229.47;;;-9.07;67.74
55347;BME280;41218;55.700;38.270;2023-02-17T21:04:08;100211.63;;;-9.13;67.85
55347;BME280;41218;55.700;38.270;2023-02-17T21:09:13;100205.03;;;-9.10;68.24
55347;BME280;41218;55.700;38.270;2023-02-17T21:14:14;100210.69;;;-9.18;67.50
55347;BME280;41218;55.700;38.270;2023-02-17T21:19:15;100206.38;;;-9.19;67.87
55347;BME280;41218;55.700;38.270;2023-02-17T21:24:15;100204.97;;;-9.22;67.71
55347;BME280;41218;55.700;38.270;2023-02-17T21:29:16;100188.53;;;-9.25;68.29
55347;BME280;41218;55.700;38.270;2023-02-17T21:34:16;100177.47;;;-9.29;67.71
55347;BME280;41218;55.700;38.270;2023-02-17T21:39:17;100175.94;;;-9.37;67.32
55347;BME280;41218;55.700;38.270;2023-02-17T21:44:17;100160.78;;;-9.43;67.83
55347;BME280;41218;55.700;38.270;2023-02-17T21:49:36;100150.66;;;-9.53;67.81
55347;BME280;41218;55.700;38.270;2023-02-17T21:54:37;100158.91;;;-9.54;67.85
55347;BME280;41218;55.700;38.270;2023-02-17T21:59:37;100149.09;;;-9.60;67.89
55347;BME280;41218;55.700;38.270;2023-02-17T22:04:38;100129.84;;;-9.69;67.79
55347;BME280;41218;55.700;38.270;2023-02-17T22:09:38;100133.97;;;-9.67;67.93
55347;BME280;41218;55.700;38.270;2023-02-17T22:14:39;100136.50;;;-9.72;68.02
55347;BME280;41218;55.700;38.270;2023-02-17T22:19:39;100129.38;;;-9.78;67.87
55347;BME280;41218;55.700;38.270;2023-02-17T22:24:40;100128.78;;;-9.80;67.70
55347;BME280;41218;55.700;38.270;2023-02-17T22:29:40;100114.09;;;-9.89;67.58
55347;BME280;41218;55.700;38.270;2023-02-17T22:34:41;100125.84;;;-9.90;67.76
55347;BME280;41218;55.700;38.270;2023-02-17T22:39:41;100114.31;;;-9.91;68.19
55347;BME280;41218;55.700;38.270;2023-02-17T22:44:42;100113.16;;;-9.95;67.76
55347;BME280;41218;55.700;38.270;2023-02-17T22:49:42;100106.63;;;-9.99;67.90
55347;BME280;41218;55.700;38.270;2023-02-17T22:54:44;100103.56;;;-10.02;67.96
55347;BME280;41218;55.700;38.270;2023-02-17T22:59:45;100094.38;;;-10.07;67.58
55347;BME280;41218;55.700;38.270;2023-02-17T23:04:45;100075.97;;;-10.15;68.02
55347;BME280;41218;55.700;38.270;2023-02-17T23:09:47;100069.34;;;-10.12;67.61
55347;BME280;41218;55.700;38.270;2023-02-17T23:14:47;100056.50;;;-10.22;67.54
55347;BME280;41218;55.700;38.270;2023-02-17T23:19:48;100060.63;;;-10.19;67.79
55347;BME280;41218;55.700;38.270;2023-02-17T23:24:48;100057.34;;;-10.21;67.80
55347;BME280;41218;55.700;38.270;2023-02-17T23:29:49;100056.59;;;-10.29;67.20
55347;BME280;41218;55.700;38.270;2023-02-17T23:34:49;100058.25;;;-10.28;67.54
55347;BME280;41218;55.700;38.270;2023-02-17T23:39:50;100040.22;;;-10.32;67.79
55347;BME280;41218;55.700;38.270;2023-02-17T23:44:50;100040.09;;;-10.37;67.66
55347;BME280;41218;55.700;38.270;2023-02-17T23:49:51;100028.03;;;-10.40;67.80
55347;BME280;41218;55.700;38.270;2023-02-17T23:54:51;100018.66;;;-10.49;68.02
55347;BME280;41218;55.700;38.270;2023-02-17T23:59:52;100024.00;;;-10.49;67.54
